עמוד ראשי
METAR-TAF:

METAR-TAF

שדות תעופה :

לוקסור, מצרים

קו רוחב: 25-40N, קו אורך: 032-42E, גובה: 93מטר

תצפית מזג אוויר נוכחית

הדו"ח נערך לפני 1 שעות ו 40דקות, בשעה 19:00 UTC
רוח 4קשר מכיוון מערב
טמפרטורת 37 צלסיוס
לחות 14%
לחץ 1003 hPa
ראות 10 קילומטר או יותר
ללא עננים שבסיסם נמוך מ 5000 רגל או קומולונימבוס

METAR: HELX 251900Z 26004KT CAVOK 37/05 Q1003 NOSIG

זמן: 22:40 (20:40 UTC)

תחזית

הדו"ח נערך לפני 3 שעות ו 40דקות, בשעה 17:00 UTC
תחזית בתוקף מ 25 ב 18 UTC עד 26 ב 24 UTC
רוח 7קשר מכיוון צפון-מערב
ראות 10 קילומטר או יותר
ללא עננים שבסיסם נמוך מ 5000 רגל או קומולונימבוס

TAF: HELX 251700Z 2518/2624 32007KT CAVOK

תצפיות ותחזיות מזג אוויר לגבי יותר מ- 4,000 שדות תעופה ברחבי העולם. דוחות METAR ו- TAF.

התחנות הזמינות מסומנות בנקודות צהובות ואדומות על גבי המפה.

העבר את העכבר לנקודה הצבעונית על מנת לראות את שם התחנה.

לאחר מכן, לחץ כדי לראות את תוכן ואת תחזיות מזג האוויר.

כדי לשנות את המפה: לחץ על הכפתורים הירוקים עם הפלוס השחור כדי להתקרב; על הכפתור הירוק עם המקף כדי להתרחק; או בחיצים הירוקים למפות סמוכות.


METAR-TAF: